East Coast - north of Cape St. Francis: Past 24 Hour Conditions

 

Argentia

08:30 AM NST 26 November 2014
This table is a summary of hourly weather conditions for the past 24 hours.
Date / Time
(NST)
Wind(knots) Conditions Visibility(km) Pressure(kPa) Air tempC) Relative humidity(%) Dew pointC)
26 November 2014
8:30 WSW 21 N/A N/A 101.3 6 95 5
7:30 WSW 19 N/A N/A 101.2 6 98 6
6:30 SW 19 N/A N/A 101.1 7 99 7
5:30 SW 16 N/A N/A 101.0 6 100 6
4:30 SW 14 N/A N/A 100.9 6 99 6
3:30 SW 16 gust 21 N/A N/A 100.8 6 99 6
2:30 SW 20 N/A N/A 100.8 7 99 6
1:30 SSW 20 N/A N/A 100.8 7 99 7
0:30 SW 20 gust 26 N/A N/A 100.7 7 99 7
25 November 2014
23:30 SW 19 gust 26 N/A N/A 100.7 7 99 7
22:30 SSW 23 N/A N/A 100.6 8 99 8
21:30 SW 23 N/A N/A 100.7 8 99 8
20:30 SW 18 N/A N/A 100.8 8 99 7
19:30 SW 18 gust 24 N/A N/A 100.7 8 99 8
18:30 SW 17 N/A N/A 100.8 8 99 8
17:30 SW 25 N/A N/A 100.6 9 98 8
16:30 SSW 16 gust 21 N/A N/A 100.7 8 98 8
15:30 SSW 20 gust 25 N/A N/A 100.7 9 98 8
14:30 SSW 18 N/A N/A 100.7 9 98 8
13:30 SW 16 gust 21 N/A N/A 100.7 9 98 8
12:30 SSW 19 N/A N/A 100.7 9 98 9
11:30 SSW 19 gust 25 N/A N/A 100.7 9 98 9
10:30 SSW 24 gust 30 N/A N/A 100.7 9 98 9
9:30 SSW 27 gust 34 N/A N/A 100.7 10 98 9
8:30 SSW 34 gust 41 N/A N/A 100.7 10 98 10
 
Map of Atlantic - Newfoundland marine weather areas Southwestern Grand Banks - 44138 Banquereau - 44139 Tail of the Bank - 44140 Nickerson Bank - 44251 Northeast Burgeo Bank - 44255 Blanc-Sablon Airport Cap Whittle Chevery Natashquan Airport Heath Point Miscou Island Grand Étang Ingonish Beach North Mountain St.Paul Island J.A. Douglas McCurdy Sydney Airport Charlottetown Airport East Point North Cape Argentia Bonavista Burgeo Cape Race Corner Brook Daniel's Harbour Englee Ferolle Point La Scie Port aux Basques Rocky Harbour Sagona Island St. Anthony Airport St. John's Int'l Airport St. Lawrence Stephenville Airport Twillingate Winterland Wreckhouse Cartwright Airport Mary's Harbour Grates Cove Pool's Island Marticot Island Long Pond Îles de la Madeleine Airport
Legend: buoyBuoy land stationLand Station